Nearby METAR Reports

 

KSYN - Stanton, Minnesota, USA
Distance from station: NW 20mi, 33km
Updated: Sat, 18-Nov-2017 9:27am CST
Mostly cloudy
Mostly cloudy
 Wind from NW
Wind: NW 14 mph , 22 km/h
Temperature: 34°F , 1°C
Wind Chill: 25°F , -4°C
Dew Point: 30°F , -1°C
Humidity: 87%
Barometer: 29.78 inHg , 1008.5 hPa
Clouds: Mostly cloudy
Visibility: 10 miles , 16 km
Cloud details: Mostly cloudy 1300 ft
2017/11/18 15:27 KSYN 181527Z AUTO 32012KT 10SM BKN013 01/M01 A2978 RMK AO2 T00111010
KTOB - Dodge Center, Minnesota, USA
Distance from station: SSW 21mi, 34km
Updated: Sat, 18-Nov-2017 9:13am CST
Overcast
Overcast
 Wind from NNW
Wind: NNW 16 mph , 26 km/h
Temperature: 32°F , 0°C
Wind Chill: 21°F , -6°C
Dew Point: 30°F , -1°C
Humidity: 93%
Barometer: 29.75 inHg , 1007.5 hPa
Clouds: Overcast
Visibility: 7 miles , 11 km
Cloud details: Overcast 800 ft
2017/11/18 15:13 KTOB 181513Z AUTO 33014KT 7SM OVC008 00/M01 A2975 RMK AO2
K9MN - St Mary Hospital, Minnesota, USA
Distance from station: SSE 22mi, 35km
Updated: Sat, 18-Nov-2017 9:12am CST
Overcast
Overcast
 Wind from NW
Wind: NW 14 mph , 22 km/h, Gust: 20 mph , 31 km/h
Temperature: 34°F , 1°C
Wind Chill: 25°F , -4°C
Dew Point: 32°F , 0°C
Humidity: 93%
Barometer: 29.74 inHg , 1007.1 hPa
Clouds: Overcast
Visibility: 10 miles , 16 km
Cloud details: Overcast 1000 ft
2017/11/18 15:12 K9MN 181512Z AUTO 31012G17KT 10SM OVC010 01/00 A2974 RMK AO1 T00101002
 
KRGK - Red Wing, Minnesota, USA
Distance from station: NNE 22mi, 35km
Updated: Sat, 18-Nov-2017 9:15am CST
Mostly cloudy
Mostly cloudy
 Wind from N
Wind: N 7 mph , 11 km/h, Gust: 18 mph , 30 km/h
Temperature: 36°F , 2°C
Wind Chill: 30°F , -1°C
Dew Point: 28°F , -2°C
Humidity: 75%
Barometer: 29.76 inHg , 1007.8 hPa
Clouds: Mostly cloudy
Visibility: 10 miles , 16 km
Cloud details: Mostly cloudy 1300 ft
2017/11/18 15:15 KRGK 181515Z AUTO 35006G16KT 10SM BKN013 02/M02 A2976 RMK AO2
KRST - Rochester, Minnesota, USA
Distance from station: SSE 29mi, 47km
Updated: Sat, 18-Nov-2017 8:54am CST
Overcast
Overcast
 Wind from N
Wind: N 18 mph , 30 km/h, Gust: 28 mph , 44 km/h
Temperature: 34°F , 1°C
Wind Chill: 23°F , -5°C
Dew Point: 32°F , 0°C
Humidity: 93%
Barometer: 29.72 inHg , 1006.4 hPa
Clouds: Overcast
Visibility: 9 miles , 14 km
Cloud details: Overcast 1100 ft
2017/11/18 14:54 KRST 181454Z 35016G24KT 9SM OVC011 01/00 A2972 RMK AO2 PK WND 34026/1426 CIG 009V014 SLP077 T00110000 51009
KOWA - Owatonna, Minnesota, USA
Distance from station: WSW 31mi, 50km
Updated: Sat, 18-Nov-2017 9:14am CST
Mostly cloudy
Mostly cloudy
 Wind from NW
Wind: NW 14 mph , 22 km/h
Temperature: 34°F , 1°C
Wind Chill: 25°F , -4°C
Dew Point: 30°F , -1°C
Humidity: 87%
Barometer: 29.79 inHg , 1008.8 hPa
Clouds: Mostly cloudy
Visibility: 7 miles , 11 km
Cloud details: Mostly cloudy 1000 ft
2017/11/18 15:14 KOWA 181514Z AUTO 32012KT 7SM BKN010 01/M01 A2979 RMK AO2
 
KFBL - Faribault Muni, Minnesota, USA
Distance from station: W 32mi, 51km
Updated: Sat, 18-Nov-2017 9:14am CST
Clear
Clear
 Wind from WNW
Wind: WNW 10 mph , 17 km/h, Gust: 17 mph , 28 km/h
Temperature: 34°F , 1°C
Wind Chill: 26°F , -3°C
Dew Point: 28°F , -2°C
Humidity: 81%
Barometer: 29.80 inHg , 1009.1 hPa
Clouds: Clear
Visibility: 7 miles , 11 km
2017/11/18 15:14 KFBL 181514Z AUTO 30009G15KT 7SM CLR 01/M02 A2980 RMK AO2
KSGS - South St Paul, Minnesota, USA
Distance from station: NNW 43mi, 69km
Updated: Sat, 18-Nov-2017 9:13am CST
Clear
Clear
 Wind from NW
Wind: NW 13 mph , 20 km/h
Temperature: 32°F , 0°C
Wind Chill: 22°F , -6°C
Dew Point: 28°F , -2°C
Humidity: 87%
Barometer: 29.80 inHg , 1009.1 hPa
Clouds: Clear
Visibility: 10 miles , 16 km
2017/11/18 15:13 KSGS 181513Z AUTO 32011KT 10SM CLR 00/M02 A2980 RMK AO2 T00001020
KAUM - Austin Muni, Minnesota, USA
Distance from station: SSW 46mi, 73km
Updated: Sat, 18-Nov-2017 9:16am CST
Mist, Overcast
Mist, Overcast
 Wind from NNW
Wind: NNW 15 mph , 24 km/h, Gust: 18 mph , 30 km/h
Temperature: 34°F , 1°C
Wind Chill: 24°F , -4°C
Dew Point: 30°F , -1°C
Humidity: 87%
Barometer: 29.74 inHg , 1007.1 hPa
Summary: Mist
Clouds: Overcast
Visibility: 5 miles , 8 km
Cloud details: Overcast 900 ft
2017/11/18 15:16 KAUM 181516Z AUTO 33013G16KT 5SM BR OVC009 01/M01 A2974 RMK AO2
 
KACQ - Waseca, Minnesota, USA
Distance from station: WSW 46mi, 75km
Updated: Sat, 18-Nov-2017 9:12am CST
Clear
Clear
 Wind from NW
Wind: NW 13 mph , 20 km/h, Gust: 18 mph , 30 km/h
Temperature: 32°F , 0°C
Wind Chill: 22°F , -6°C
Dew Point: 30°F , -1°C
Humidity: 93%
Barometer: 29.81 inHg , 1009.5 hPa
Clouds: Clear
Visibility: 10 miles , 16 km
2017/11/18 15:12 KACQ 181512Z AUTO 32011G16KT 10SM CLR 00/M01 A2981 RMK AO2
KSTP - St. Paul, Minnesota, USA
Distance from station: NNW 47mi, 76km
Updated: Sat, 18-Nov-2017 8:53am CST
Clear
Clear
 Wind from NW
Wind: NW 10 mph , 17 km/h
Temperature: 32°F , 0°C
Wind Chill: 24°F , -4°C
Dew Point: 28°F , -2°C
Humidity: 87%
Barometer: 29.82 inHg , 1009.8 hPa
Clouds: Clear
Visibility: 10 miles , 16 km
2017/11/18 14:53 KSTP 181453Z 32009KT 10SM CLR 00/M02 A2982 RMK AO2 SLP102 T00001022 51022
KMSP - Minneapolis, Minnesota, USA
Distance from station: NW 49mi, 78km
Updated: Sat, 18-Nov-2017 8:53am CST
Mostly cloudy
Mostly cloudy
 Wind from NNW
Wind: NNW 10 mph , 17 km/h
Temperature: 32°F , 0°C
Wind Chill: 24°F , -4°C
Dew Point: 28°F , -2°C
Humidity: 87%
Barometer: 29.80 inHg , 1009.1 hPa
Clouds: Mostly cloudy
Visibility: 10 miles , 16 km
Cloud details: Few Clouds 1400 ft
Mostly cloudy 15000 ft
2017/11/18 14:53 KMSP 181453Z 34009KT 10SM FEW014 BKN150 00/M02 A2980 RMK AO2 SLP101 T00001022 51021